createdAt,value
2018-10-02T00:00:00.720Z,18.20
2018-10-02T00:02:33.128Z,19.20
2018-10-02T00:05:05.754Z,19.10
2018-10-02T00:07:37.986Z,19.50
2018-10-02T00:10:10.313Z,19.50
2018-10-02T00:12:46.972Z,19.30
2018-10-02T00:15:19.204Z,20.00
2018-10-02T00:17:51.597Z,20.30
2018-10-02T00:20:23.866Z,20.00
2018-10-02T00:22:56.201Z,20.40
2018-10-02T00:25:28.725Z,20.10
2018-10-02T00:28:01.113Z,20.20
2018-10-02T00:30:33.497Z,20.70
2018-10-02T00:33:05.893Z,21.20
2018-10-02T00:35:38.249Z,21.30
2018-10-02T00:38:10.639Z,21.80
2018-10-02T00:40:43.209Z,21.80
2018-10-02T00:43:15.758Z,22.40
2018-10-02T00:45:48.110Z,21.60
2018-10-02T00:48:20.738Z,22.60
2018-10-02T00:50:53.134Z,24.30
2018-10-02T00:53:25.472Z,23.00
2018-10-02T00:55:58.037Z,22.10
2018-10-02T00:58:31.389Z,22.70
2018-10-02T01:01:04.162Z,22.40
2018-10-02T01:03:36.297Z,23.00
2018-10-02T01:06:08.167Z,23.30
2018-10-02T01:08:39.927Z,23.60
2018-10-02T01:11:12.213Z,22.30
2018-10-02T01:13:44.786Z,22.70
2018-10-02T01:16:17.151Z,23.50
2018-10-02T01:18:49.949Z,23.50
2018-10-02T01:21:22.468Z,24.30
2018-10-02T01:23:54.723Z,23.80
2018-10-02T01:26:27.036Z,23.50
2018-10-02T01:28:59.852Z,23.00
2018-10-02T01:31:31.532Z,24.10
2018-10-02T01:34:03.407Z,23.90
2018-10-02T01:36:36.245Z,23.90
2018-10-02T01:39:09.210Z,25.10
2018-10-02T01:41:41.989Z,24.80
2018-10-02T01:44:14.238Z,24.90
2018-10-02T01:46:46.402Z,25.10
2018-10-02T01:49:18.653Z,24.90
2018-10-02T01:51:50.896Z,26.00
2018-10-02T01:54:23.027Z,25.70
2018-10-02T01:56:55.737Z,25.70
2018-10-02T01:59:28.232Z,25.70
2018-10-02T02:02:00.540Z,26.30
2018-10-02T02:04:32.885Z,25.60
2018-10-02T02:07:05.305Z,26.30
2018-10-02T02:09:37.434Z,26.80
2018-10-02T02:12:10.291Z,27.00
2018-10-02T02:14:43.586Z,26.90
2018-10-02T02:17:15.862Z,28.40
2018-10-02T02:19:48.041Z,28.40
2018-10-02T02:22:20.242Z,28.70
2018-10-02T02:24:52.853Z,28.60
2018-10-02T02:27:25.172Z,29.80
2018-10-02T02:29:57.511Z,30.20
2018-10-02T02:32:29.677Z,31.10
2018-10-02T02:35:02.070Z,30.70
2018-10-02T02:37:34.439Z,30.90
2018-10-02T02:40:07.204Z,32.00
2018-10-02T02:42:39.565Z,31.70
2018-10-02T02:45:11.949Z,32.60
2018-10-02T02:47:48.330Z,32.30
2018-10-02T02:50:24.996Z,31.70
2018-10-02T02:53:01.569Z,32.60
2018-10-02T02:55:33.840Z,32.80
2018-10-02T02:58:06.030Z,32.70
2018-10-02T03:00:38.669Z,32.10
2018-10-02T03:03:10.839Z,33.20
2018-10-02T03:05:44.591Z,33.30
2018-10-02T03:08:16.699Z,34.00
2018-10-02T03:10:49.101Z,34.30
2018-10-02T03:13:21.447Z,34.30
2018-10-02T03:15:53.376Z,34.50
2018-10-02T03:18:25.685Z,34.60
2018-10-02T03:20:58.143Z,34.80
2018-10-02T03:23:29.867Z,35.00
2018-10-02T03:26:02.265Z,34.20
2018-10-02T03:28:34.578Z,35.40
2018-10-02T03:31:06.802Z,35.50
2018-10-02T03:33:39.428Z,35.30
2018-10-02T03:36:11.994Z,35.70
2018-10-02T03:38:44.169Z,36.40
2018-10-02T03:41:16.531Z,36.40
2018-10-02T03:43:48.319Z,36.40
2018-10-02T03:46:20.138Z,35.20
2018-10-02T03:48:52.440Z,34.10
2018-10-02T03:51:24.380Z,34.20
2018-10-02T03:53:56.754Z,34.90
2018-10-02T03:56:29.116Z,34.60
2018-10-02T03:59:02.282Z,34.40
2018-10-02T04:01:34.451Z,34.50
2018-10-02T04:04:06.870Z,34.10
2018-10-02T04:06:38.691Z,34.00
2018-10-02T04:09:12.677Z,34.20
2018-10-02T04:11:45.010Z,33.40
2018-10-02T04:14:17.306Z,33.40
2018-10-02T04:16:50.013Z,33.40
2018-10-02T04:19:22.060Z,33.20
2018-10-02T04:21:54.249Z,34.00
2018-10-02T04:24:26.446Z,34.00
2018-10-02T04:26:58.944Z,35.10
2018-10-02T04:29:36.379Z,35.80
2018-10-02T04:32:08.939Z,34.80
2018-10-02T04:34:41.202Z,35.70
2018-10-02T04:37:13.422Z,36.30
2018-10-02T04:39:45.737Z,36.40
2018-10-02T04:42:17.822Z,36.30
2018-10-02T04:44:50.047Z,36.30
2018-10-02T04:47:22.268Z,36.30
2018-10-02T04:49:54.812Z,35.00
2018-10-02T04:52:26.772Z,35.80
2018-10-02T04:54:58.940Z,35.10
2018-10-02T04:57:31.904Z,35.90
2018-10-02T05:00:04.088Z,35.40
2018-10-02T05:02:36.124Z,36.30
2018-10-02T05:05:08.486Z,37.00
2018-10-02T05:07:41.050Z,36.30
2018-10-02T05:10:13.562Z,36.70
2018-10-02T05:12:45.773Z,37.50
2018-10-02T05:15:17.989Z,38.50
2018-10-02T05:17:50.577Z,39.10
2018-10-02T05:20:22.877Z,40.50
2018-10-02T05:22:55.290Z,39.80
2018-10-02T05:25:27.413Z,41.30
2018-10-02T05:27:59.796Z,42.40
2018-10-02T05:30:32.144Z,41.90
2018-10-02T05:33:04.390Z,43.00
2018-10-02T05:35:37.152Z,42.00
2018-10-02T05:38:09.540Z,43.80
2018-10-02T05:40:42.006Z,42.50
2018-10-02T05:43:14.265Z,43.30
2018-10-02T05:45:46.536Z,43.10
2018-10-02T05:48:18.878Z,42.40
2018-10-02T05:50:51.399Z,42.90
2018-10-02T05:53:23.616Z,43.30
2018-10-02T05:55:56.142Z,43.10
2018-10-02T05:58:28.293Z,42.90
2018-10-02T06:01:00.464Z,43.20
2018-10-02T06:03:32.576Z,43.80
2018-10-02T06:06:05.766Z,44.10
2018-10-02T06:08:38.146Z,44.00
2018-10-02T06:11:10.294Z,44.20
2018-10-02T06:13:43.028Z,45.00
2018-10-02T06:16:15.340Z,44.90
2018-10-02T06:18:47.860Z,44.70
2018-10-02T06:21:20.182Z,44.80
2018-10-02T06:23:52.363Z,45.60
2018-10-02T06:26:24.738Z,45.60
2018-10-02T06:28:57.110Z,46.00
2018-10-02T06:31:29.060Z,46.60
2018-10-02T06:34:01.846Z,47.40
2018-10-02T06:36:34.236Z,48.20
2018-10-02T06:39:07.356Z,49.10
2018-10-02T06:41:39.556Z,49.90
2018-10-02T06:44:11.724Z,50.40
2018-10-02T06:46:43.711Z,50.90
2018-10-02T06:49:16.266Z,51.80
2018-10-02T06:51:48.634Z,51.80
2018-10-02T06:54:21.043Z,52.20
2018-10-02T06:56:53.316Z,53.20
2018-10-02T06:59:25.782Z,54.50
2018-10-02T07:01:57.958Z,54.60
2018-10-02T07:04:30.495Z,55.50
2018-10-02T07:07:02.874Z,55.80
2018-10-02T07:09:35.284Z,55.40
2018-10-02T07:12:07.765Z,56.30
2018-10-02T07:14:40.174Z,54.90
2018-10-02T07:17:12.271Z,55.90
2018-10-02T07:19:44.632Z,56.10
2018-10-02T07:22:16.827Z,56.10
2018-10-02T07:24:49.450Z,56.40
2018-10-02T07:27:21.914Z,56.70
2018-10-02T07:29:54.522Z,56.90
2018-10-02T07:32:27.096Z,56.70
2018-10-02T07:34:59.681Z,56.50
2018-10-02T07:37:31.932Z,55.80
2018-10-02T07:40:04.215Z,56.50
2018-10-02T07:42:36.718Z,56.20
2018-10-02T07:45:09.055Z,55.10
2018-10-02T07:47:41.348Z,55.90
2018-10-02T07:50:13.920Z,55.80
2018-10-02T07:52:46.047Z,54.80
2018-10-02T07:55:18.235Z,54.80
2018-10-02T07:57:50.903Z,54.70
2018-10-02T08:00:23.262Z,54.10
2018-10-02T08:02:55.583Z,54.40
2018-10-02T08:05:27.759Z,54.20
2018-10-02T08:08:00.126Z,54.60
2018-10-02T08:10:32.440Z,54.80
2018-10-02T08:13:07.578Z,53.10
2018-10-02T08:15:40.342Z,53.40
2018-10-02T08:18:12.679Z,53.00
2018-10-02T08:20:45.289Z,52.20
2018-10-02T08:23:17.501Z,51.70
2018-10-02T08:25:50.949Z,51.60
2018-10-02T08:28:23.259Z,51.30
2018-10-02T08:30:55.742Z,52.70
2018-10-02T08:33:28.195Z,52.10
2018-10-02T08:36:00.752Z,52.60
2018-10-02T08:38:32.955Z,52.80
2018-10-02T08:41:05.202Z,52.70
2018-10-02T08:43:37.509Z,52.60
2018-10-02T08:46:09.709Z,52.70
2018-10-02T08:48:42.211Z,53.00
2018-10-02T08:51:14.635Z,54.20
2018-10-02T08:53:47.046Z,53.60
2018-10-02T08:56:19.544Z,52.80
2018-10-02T08:58:51.662Z,52.30
2018-10-02T09:01:23.882Z,52.40
2018-10-02T09:03:55.755Z,51.90
2018-10-02T09:06:27.864Z,51.80
2018-10-02T09:09:00.102Z,52.10
2018-10-02T09:11:32.265Z,52.10
2018-10-02T09:14:04.672Z,51.50
2018-10-02T09:16:36.998Z,51.50
2018-10-02T09:19:09.669Z,51.60
2018-10-02T09:21:42.157Z,51.40
2018-10-02T09:24:14.857Z,51.40
2018-10-02T09:26:47.228Z,51.90
2018-10-02T09:29:19.370Z,52.20
2018-10-02T09:31:56.483Z,51.00
2018-10-02T09:34:33.598Z,50.60
2018-10-02T09:37:10.367Z,50.50
2018-10-02T09:39:47.040Z,51.40
2018-10-02T09:42:23.747Z,51.50
2018-10-02T09:44:56.188Z,51.20
2018-10-02T09:47:28.417Z,51.20
2018-10-02T09:50:00.746Z,50.70
2018-10-02T09:52:32.943Z,49.80
2018-10-02T09:55:05.368Z,49.80
2018-10-02T09:57:37.670Z,49.50
2018-10-02T10:00:14.095Z,49.50
2018-10-02T10:02:46.637Z,50.10
2018-10-02T10:05:19.175Z,50.20
2018-10-02T10:07:51.487Z,49.20
2018-10-02T10:10:24.036Z,50.30
2018-10-02T10:12:56.284Z,49.90
2018-10-02T10:15:28.478Z,50.20
2018-10-02T10:18:00.673Z,50.60
2018-10-02T10:20:32.800Z,49.10
2018-10-02T10:23:05.575Z,49.60
2018-10-02T10:25:37.858Z,50.30
2018-10-02T10:28:10.250Z,49.70
2018-10-02T10:30:42.485Z,50.70
2018-10-02T10:33:14.812Z,51.30
2018-10-02T10:35:46.946Z,50.70
2018-10-02T10:38:19.497Z,50.90
2018-10-02T10:40:51.903Z,51.30
2018-10-02T10:43:24.275Z,51.10
2018-10-02T10:45:56.453Z,51.70
2018-10-02T10:48:28.995Z,52.40
2018-10-02T10:51:01.198Z,52.40
2018-10-02T10:53:33.506Z,52.40
2018-10-02T10:56:06.187Z,52.60
2018-10-02T10:58:38.511Z,52.60
2018-10-02T11:01:10.655Z,52.30
2018-10-02T11:03:42.854Z,51.60
2018-10-02T11:06:15.417Z,52.10
2018-10-02T11:08:47.853Z,53.50
2018-10-02T11:11:19.937Z,52.80
2018-10-02T11:13:52.390Z,53.00
2018-10-02T11:16:24.673Z,53.20
2018-10-02T11:18:57.204Z,53.40
2018-10-02T11:21:29.306Z,53.50
2018-10-02T11:24:02.094Z,53.70
2018-10-02T11:26:34.431Z,54.20
2018-10-02T11:29:06.826Z,53.90
2018-10-02T11:31:39.960Z,53.60
2018-10-02T11:34:12.490Z,53.50
2018-10-02T11:36:45.070Z,54.30
2018-10-02T11:39:17.486Z,54.40
2018-10-02T11:41:50.000Z,54.60
2018-10-02T11:44:22.591Z,55.20
2018-10-02T11:46:55.151Z,55.20
2018-10-02T11:49:27.568Z,56.10
2018-10-02T11:51:59.892Z,56.20
2018-10-02T11:54:32.269Z,56.30
2018-10-02T11:57:04.511Z,56.30
2018-10-02T11:59:36.760Z,56.80
2018-10-02T12:02:09.412Z,57.80
2018-10-02T12:04:41.656Z,57.50
2018-10-02T12:07:13.898Z,57.20
2018-10-02T12:09:46.122Z,57.40
2018-10-02T12:12:18.222Z,57.90
2018-10-02T12:14:50.819Z,57.60
2018-10-02T12:17:22.983Z,58.20
2018-10-02T12:19:55.821Z,58.70
2018-10-02T12:22:27.952Z,59.30
2018-10-02T12:25:00.341Z,60.00
2018-10-02T12:27:32.666Z,59.80
2018-10-02T12:30:04.902Z,60.40
2018-10-02T12:32:37.015Z,61.30
2018-10-02T12:35:09.477Z,61.70
2018-10-02T12:37:41.736Z,62.00
2018-10-02T12:40:14.155Z,61.60
2018-10-02T12:42:46.452Z,61.90
2018-10-02T12:45:18.583Z,62.20
2018-10-02T12:47:52.000Z,61.90
2018-10-02T12:50:24.571Z,61.80
2018-10-02T12:52:57.528Z,62.10
2018-10-02T12:55:30.118Z,62.30
2018-10-02T12:58:02.258Z,62.70
2018-10-02T13:00:34.479Z,62.90
2018-10-02T13:03:07.012Z,62.90
2018-10-02T13:05:39.601Z,63.10
2018-10-02T13:08:11.983Z,63.40
2018-10-02T13:10:44.349Z,63.00
2018-10-02T13:13:16.877Z,63.00
2018-10-02T13:15:49.189Z,62.80
2018-10-02T13:18:21.541Z,62.70
2018-10-02T13:20:53.765Z,62.60
2018-10-02T13:23:25.844Z,62.60
2018-10-02T13:25:59.530Z,62.90
2018-10-02T13:28:31.754Z,63.00
2018-10-02T13:31:03.933Z,63.10
2018-10-02T13:33:36.114Z,63.20
2018-10-02T13:36:08.959Z,63.40
2018-10-02T13:38:41.219Z,63.40
2018-10-02T13:41:13.399Z,63.90
2018-10-02T13:43:45.767Z,63.90
2018-10-02T13:46:18.060Z,64.00
2018-10-02T13:48:50.287Z,64.40
2018-10-02T13:51:22.489Z,64.80
2018-10-02T13:53:55.259Z,65.10
2018-10-02T13:56:27.266Z,65.60
2018-10-02T13:59:00.122Z,65.80
2018-10-02T14:01:32.626Z,65.60
2018-10-02T14:04:05.198Z,65.30
2018-10-02T14:06:37.732Z,65.30
2018-10-02T14:09:10.552Z,65.30
2018-10-02T14:11:42.998Z,65.20
2018-10-02T14:14:15.278Z,65.10
2018-10-02T14:16:47.857Z,64.70
2018-10-02T14:19:20.365Z,63.70
2018-10-02T14:21:52.821Z,63.60
2018-10-02T14:24:25.019Z,63.70
2018-10-02T14:26:57.390Z,63.30
2018-10-02T14:29:29.870Z,63.20
2018-10-02T14:32:02.189Z,63.00
2018-10-02T14:34:34.932Z,62.80
2018-10-02T14:37:07.427Z,63.00
2018-10-02T14:39:39.881Z,62.20
2018-10-02T14:42:11.962Z,62.50
2018-10-02T14:44:44.517Z,62.10
2018-10-02T14:47:16.771Z,62.10
2018-10-02T14:49:49.284Z,62.20
2018-10-02T14:52:21.627Z,62.00
2018-10-02T14:54:53.654Z,62.00
2018-10-02T14:57:26.210Z,61.60
2018-10-02T14:59:58.744Z,60.30
2018-10-02T15:02:30.754Z,59.70
2018-10-02T15:05:03.310Z,60.20
2018-10-02T15:07:35.782Z,59.70
2018-10-02T15:10:08.265Z,59.40
2018-10-02T15:12:40.329Z,59.60
2018-10-02T15:15:12.865Z,59.60
2018-10-02T15:17:45.252Z,59.70
2018-10-02T15:20:17.691Z,59.50
2018-10-02T15:22:50.236Z,59.50
2018-10-02T15:25:22.613Z,59.60
2018-10-02T15:27:55.146Z,59.40
2018-10-02T15:30:27.287Z,58.70
2018-10-02T15:32:59.701Z,58.50
2018-10-02T15:35:32.675Z,58.50
2018-10-02T15:38:05.265Z,58.70
2018-10-02T15:40:37.437Z,58.80
2018-10-02T15:43:10.267Z,58.70
2018-10-02T15:45:42.666Z,58.00
2018-10-02T15:48:14.977Z,58.10
2018-10-02T15:50:47.355Z,58.70
2018-10-02T15:53:19.696Z,59.30
2018-10-02T15:55:52.072Z,59.40
2018-10-02T15:58:24.894Z,59.50
2018-10-02T16:00:57.230Z,58.60
2018-10-02T16:03:29.688Z,58.00
2018-10-02T16:06:01.913Z,59.50
2018-10-02T16:08:34.137Z,60.60
2018-10-02T16:11:06.138Z,61.20
2018-10-02T16:13:38.473Z,61.30
2018-10-02T16:16:10.973Z,61.60
2018-10-02T16:18:43.151Z,61.70
2018-10-02T16:21:15.468Z,63.30
2018-10-02T16:23:48.020Z,60.90
2018-10-02T16:26:20.863Z,60.60
2018-10-02T16:28:53.807Z,60.30
2018-10-02T16:31:25.985Z,60.40
2018-10-02T16:33:58.138Z,60.00
2018-10-02T16:36:30.268Z,60.00
2018-10-02T16:39:02.492Z,61.40
2018-10-02T16:41:34.618Z,62.10
2018-10-02T16:44:06.694Z,61.60
2018-10-02T16:46:39.216Z,60.90
2018-10-02T16:49:11.554Z,60.90
2018-10-02T16:51:43.955Z,59.10
2018-10-02T16:54:16.259Z,57.90
2018-10-02T16:56:48.479Z,56.90
2018-10-02T16:59:21.465Z,53.10
2018-10-02T17:01:53.830Z,53.40
2018-10-02T17:04:26.162Z,53.50
2018-10-02T17:06:58.632Z,51.90
2018-10-02T17:09:30.923Z,49.30
2018-10-02T17:12:03.436Z,49.40
2018-10-02T17:14:35.553Z,47.50
2018-10-02T17:17:07.558Z,47.70
2018-10-02T17:19:39.930Z,46.20
2018-10-02T17:22:12.411Z,46.30
2018-10-02T17:24:44.665Z,46.20
2018-10-02T17:27:17.212Z,44.50
2018-10-02T17:29:50.010Z,43.70
2018-10-02T17:32:22.192Z,42.40
2018-10-02T17:34:54.571Z,42.80
2018-10-02T17:37:27.109Z,42.30
2018-10-02T17:39:59.295Z,39.40
2018-10-02T17:42:31.445Z,39.60
2018-10-02T17:45:03.422Z,37.60
2018-10-02T17:47:35.949Z,38.60
2018-10-02T17:50:08.180Z,37.70
2018-10-02T17:52:40.908Z,37.80
2018-10-02T17:55:13.328Z,35.90
2018-10-02T17:57:45.738Z,36.90
2018-10-02T18:00:18.195Z,34.80
2018-10-02T18:02:50.511Z,34.00
2018-10-02T18:05:22.785Z,34.50
2018-10-02T18:07:55.009Z,37.40
2018-10-02T18:10:27.366Z,35.60
2018-10-02T18:13:00.138Z,35.60
2018-10-02T18:15:32.555Z,36.00
2018-10-02T18:18:04.955Z,35.50
2018-10-02T18:20:37.246Z,33.60
2018-10-02T18:23:09.624Z,31.20
2018-10-02T18:25:42.036Z,30.00
2018-10-02T18:28:14.180Z,28.60
2018-10-02T18:30:46.579Z,28.80
2018-10-02T18:33:19.135Z,26.50
2018-10-02T18:35:51.745Z,25.20
2018-10-02T18:38:24.275Z,27.30
2018-10-02T18:40:56.704Z,25.80
2018-10-02T18:43:29.256Z,23.30
2018-10-02T18:46:01.884Z,23.50
2018-10-02T18:48:34.270Z,23.50
2018-10-02T18:51:06.682Z,21.20
2018-10-02T18:53:38.953Z,20.00
2018-10-02T18:56:11.748Z,21.60
2018-10-02T18:58:44.078Z,22.40
2018-10-02T19:01:16.660Z,19.90
2018-10-02T19:03:49.074Z,20.50
2018-10-02T19:06:21.936Z,22.30
2018-10-02T19:08:59.462Z,22.00
2018-10-02T19:11:36.413Z,20.80
2018-10-02T19:14:08.500Z,21.40
2018-10-02T19:16:41.325Z,22.40
2018-10-02T19:19:18.046Z,20.60
2018-10-02T19:21:50.370Z,19.80
2018-10-02T19:24:22.546Z,20.70
2018-10-02T19:26:55.120Z,21.10
2018-10-02T19:29:27.529Z,20.70
2018-10-02T19:32:05.844Z,20.90
2018-10-02T19:34:38.100Z,20.60
2018-10-02T19:37:15.058Z,22.20
2018-10-02T19:39:47.409Z,23.30
2018-10-02T19:42:20.381Z,21.80
2018-10-02T19:44:53.076Z,21.90
2018-10-02T19:47:25.581Z,19.70
2018-10-02T19:49:58.091Z,20.30
2018-10-02T19:52:30.597Z,19.80
2018-10-02T19:55:02.969Z,18.10
2018-10-02T19:57:35.844Z,16.80
2018-10-02T20:00:08.742Z,18.80
2018-10-02T20:02:41.184Z,15.50
2018-10-02T20:05:13.366Z,13.80
2018-10-02T20:07:45.515Z,11.90
2018-10-02T20:10:17.914Z,13.40
2018-10-02T20:12:50.369Z,13.40
2018-10-02T20:15:22.923Z,10.20
2018-10-02T20:17:55.295Z,7.20
2018-10-02T20:20:27.474Z,7.90
2018-10-02T20:23:00.069Z,8.90
2018-10-02T20:25:32.386Z,9.50
2018-10-02T20:28:04.830Z,11.20
2018-10-02T20:30:37.166Z,8.90
2018-10-02T20:33:09.428Z,9.20
2018-10-02T20:35:41.825Z,12.50
2018-10-02T20:38:13.857Z,16.00
2018-10-02T20:40:47.759Z,16.10
2018-10-02T20:43:20.433Z,16.90
2018-10-02T20:45:52.996Z,17.50
2018-10-02T20:48:25.971Z,17.20
2018-10-02T20:50:58.292Z,14.90
2018-10-02T20:53:30.695Z,13.70
2018-10-02T20:56:03.026Z,12.30
2018-10-02T20:58:35.437Z,12.20
2018-10-02T21:01:08.018Z,12.90
2018-10-02T21:03:40.371Z,13.90
2018-10-02T21:06:12.727Z,14.10
2018-10-02T21:08:45.063Z,13.90
2018-10-02T21:11:17.909Z,9.30
2018-10-02T21:13:50.056Z,7.20
2018-10-02T21:16:22.183Z,5.70
2018-10-02T21:18:54.738Z,7.50
2018-10-02T21:21:27.406Z,6.50
2018-10-02T21:23:59.806Z,6.70
2018-10-02T21:26:31.766Z,6.20
2018-10-02T21:29:04.033Z,6.80
2018-10-02T21:31:36.152Z,6.20
2018-10-02T21:34:08.729Z,5.90
2018-10-02T21:36:41.239Z,6.00
2018-10-02T21:39:13.455Z,6.00
2018-10-02T21:41:45.623Z,5.90
2018-10-02T21:44:18.203Z,6.20
2018-10-02T21:46:50.625Z,6.00
2018-10-02T21:49:23.040Z,7.20
2018-10-02T21:51:55.335Z,6.10
2018-10-02T21:54:27.332Z,5.70
2018-10-02T21:56:59.596Z,6.30
2018-10-02T21:59:32.034Z,5.60
2018-10-02T22:02:05.092Z,4.90
2018-10-02T22:04:37.600Z,5.70
2018-10-02T22:07:10.199Z,5.70
2018-10-02T22:09:42.524Z,5.00
2018-10-02T22:12:14.878Z,2.30
2018-10-02T22:14:47.738Z,2.20
2018-10-02T22:17:19.817Z,3.70
2018-10-02T22:19:52.007Z,3.00
2018-10-02T22:22:24.305Z,2.50
2018-10-02T22:24:56.437Z,1.00
2018-10-02T22:27:28.776Z,1.00
2018-10-02T22:30:01.205Z,1.00
2018-10-02T22:32:33.442Z,1.00
2018-10-02T22:35:06.065Z,1.00
2018-10-02T22:37:38.598Z,1.00
2018-10-02T22:40:11.006Z,1.00
2018-10-02T22:42:43.353Z,1.00
2018-10-02T22:45:15.522Z,1.00
2018-10-02T22:47:48.064Z,1.00
2018-10-02T22:50:20.271Z,1.00
2018-10-02T22:52:52.803Z,1.00
2018-10-02T22:55:25.051Z,1.00
2018-10-02T22:57:57.114Z,1.00
2018-10-02T23:00:29.721Z,1.00
2018-10-02T23:03:01.904Z,1.00
2018-10-02T23:05:34.311Z,1.00
2018-10-02T23:08:06.890Z,1.00
2018-10-02T23:10:39.247Z,1.00
2018-10-02T23:13:11.384Z,1.00
2018-10-02T23:15:43.578Z,1.00
2018-10-02T23:18:15.962Z,1.00
2018-10-02T23:20:49.794Z,1.00
2018-10-02T23:23:21.928Z,1.00
2018-10-02T23:25:53.883Z,1.00
2018-10-02T23:28:26.555Z,1.00
2018-10-02T23:30:59.238Z,1.00
2018-10-02T23:33:32.087Z,1.00
2018-10-02T23:36:05.000Z,1.00
2018-10-02T23:38:37.554Z,1.00
2018-10-02T23:41:11.509Z,1.10
2018-10-02T23:43:44.029Z,1.20
2018-10-02T23:46:16.249Z,1.80
2018-10-02T23:48:48.357Z,1.50
2018-10-02T23:51:21.442Z,1.00
2018-10-02T23:53:53.946Z,1.30
2018-10-02T23:56:25.738Z,2.20
2018-10-02T23:58:58.362Z,3.30
